Time;durP1;ratioP1;P1;durP2;ratioP2;P2;SDS_P1;SDS_P2;PMS_P1;PMS_P2;Temp;Humidity;BMP_temperature;BMP_pressure;BME280_temperature;BME280_humidity;BME280_pressure;Samples;Min_cycle;Max_cycle;Signal;HPM_P1;HPM_P2
2022/03/17 00:00:14;;;;;;;20.85;15.38;;;;;;;12.93;45.80;101463.81;690564;28;1160;-85
2022/03/17 00:00:35;;;;;;;21.17;14.68;;;;;;;12.91;46.11;101461.97;690373;28;1427;-86
2022/03/17 00:00:57;;;;;;;21.67;14.82;;;;;;;12.89;46.03;101462.81;694232;28;1418;-85
2022/03/17 00:01:17;;;;;;;20.15;15.07;;;;;;;13.00;45.84;101486.75;695736;28;1383;-86
2022/03/17 00:01:38;;;;;;;21.88;15.48;;;;;;;12.92;45.85;101463.72;693463;28;1280;-85
2022/03/17 00:01:59;;;;;;;21.60;15.30;;;;;;;12.94;46.19;101476.06;692237;28;1322;-87
2022/03/17 00:02:19;;;;;;;22.00;14.90;;;;;;;12.91;45.90;101460.22;693219;28;1162;-86
2022/03/17 00:02:40;;;;;;;20.00;14.52;;;;;;;13.00;46.13;101475.34;690669;28;1317;-85
2022/03/17 00:03:01;;;;;;;19.40;14.10;;;;;;;12.97;46.14;101473.53;694191;28;1565;-86
2022/03/17 00:03:22;;;;;;;18.60;13.57;;;;;;;12.96;46.10;101471.75;696087;28;1482;-86
2022/03/17 00:03:43;;;;;;;18.67;13.43;;;;;;;12.91;46.12;101461.97;690752;28;1351;-86
2022/03/17 00:04:03;;;;;;;19.17;14.00;;;;;;;12.93;45.95;101465.50;692968;28;1254;-85
2022/03/17 00:04:24;;;;;;;19.23;14.10;;;;;;;12.92;45.89;101469.88;690844;28;791;-86
2022/03/17 00:04:44;;;;;;;20.02;14.30;;;;;;;12.90;45.96;101461.06;692680;28;1182;-85
2022/03/17 00:05:10;;;;;;;19.83;14.20;;;;;;;12.93;46.29;101465.50;693419;28;1138;-86
2022/03/17 00:05:31;;;;;;;20.38;14.75;;;;;;;12.92;46.06;101469.88;690962;28;846;-86
2022/03/17 00:05:52;;;;;;;20.02;15.02;;;;;;;12.91;45.86;101467.19;694785;28;1574;-86
2022/03/17 00:06:13;;;;;;;21.83;14.53;;;;;;;12.88;46.10;101468.88;693061;28;1717;-86
2022/03/17 00:06:34;;;;;;;22.08;14.80;;;;;;;12.93;46.15;101471.69;690678;28;1416;-86
2022/03/17 00:06:55;;;;;;;20.58;14.18;;;;;;;12.94;46.08;101478.69;691659;28;960;-85
2022/03/17 00:07:16;;;;;;;18.58;14.27;;;;;;;12.89;46.30;101468.03;693337;28;1220;-86
2022/03/17 00:07:37;;;;;;;19.08;14.75;;;;;;;12.92;46.22;101468.97;690638;28;1292;-85
2022/03/17 00:07:58;;;;;;;19.90;14.93;;;;;;;12.87;45.96;101456.66;690503;28;1467;-86
2022/03/17 00:08:19;;;;;;;19.98;14.90;;;;;;;12.86;46.06;101454.84;694779;28;1119;-86
2022/03/17 00:08:40;;;;;;;19.17;14.50;;;;;;;12.96;46.32;101476.13;693517;28;811;-86
2022/03/17 00:09:01;;;;;;;19.10;14.30;;;;;;;12.91;46.09;101468.06;693000;28;1467;-85
2022/03/17 00:09:21;;;;;;;20.40;14.98;;;;;;;12.88;46.29;101457.50;693083;28;1411;-86
2022/03/17 00:09:42;;;;;;;22.10;15.20;;;;;;;12.99;46.11;101476.19;692873;28;1265;-86
2022/03/17 00:10:07;;;;;;;24.13;15.30;;;;;;;12.98;46.09;101474.44;690397;28;1269;-86
2022/03/17 00:10:28;;;;;;;23.63;15.13;;;;;;;12.97;45.99;101472.66;693345;28;1331;-85
2022/03/17 00:10:49;;;;;;;23.42;15.57;;;;;;;12.94;46.02;101467.31;693221;28;972;-85
2022/03/17 00:11:09;;;;;;;22.67;16.13;;;;;;;12.94;46.17;101462.97;693043;28;1572;-86
2022/03/17 00:11:30;;;;;;;23.63;16.40;;;;;;;12.93;45.87;101460.25;690109;28;1067;-85
2022/03/17 00:11:52;;;;;;;24.00;16.52;;;;;;;12.95;46.03;101469.97;693164;28;1392;-86
2022/03/17 00:12:13;;;;;;;24.83;16.48;;;;;;;12.94;46.12;101459.44;692713;28;1273;-86
2022/03/17 00:12:34;;;;;;;23.25;16.05;;;;;;;12.93;45.99;101461.19;695898;28;1405;-85
2022/03/17 00:12:56;;;;;;;20.08;15.20;;;;;;;12.95;45.81;101461.22;693363;28;1279;-86
2022/03/17 00:13:17;;;;;;;22.73;15.37;;;;;;;12.94;45.77;101456.81;693014;28;1308;-86
2022/03/17 00:13:37;;;;;;;23.83;15.50;;;;;;;12.92;45.95;101458.50;690585;28;1438;-86
2022/03/17 00:13:58;;;;;;;24.00;15.33;;;;;;;12.98;46.13;101467.44;690499;28;1157;-86
2022/03/17 00:14:20;;;;;;;21.30;15.07;;;;;;;12.94;46.19;101459.44;690464;28;1156;-86
2022/03/17 00:14:41;;;;;;;22.00;15.30;;;;;;;13.00;45.92;101462.25;693427;28;767;-86
2022/03/17 00:15:04;;;;;;;21.88;15.70;;;;;;;12.97;45.82;101462.19;698142;28;1219;-86
2022/03/17 00:15:25;;;;;;;21.83;15.60;;;;;;;13.00;46.03;101464.88;696135;28;814;-86
2022/03/17 00:15:45;;;;;;;21.60;15.93;;;;;;;13.00;46.03;101465.78;692884;28;1333;-86
2022/03/17 00:16:06;;;;;;;22.40;15.32;;;;;;;13.04;45.90;101479.84;688786;28;1624;-86
2022/03/17 00:16:27;;;;;;;23.05;15.55;;;;;;;13.03;45.77;101467.56;690613;28;1324;-85
2022/03/17 00:16:47;;;;;;;22.40;15.20;;;;;;;12.98;46.12;101469.19;693101;28;1184;-86
2022/03/17 00:17:08;;;;;;;22.90;15.68;;;;;;;12.95;46.10;101459.50;690105;28;1578;-86
2022/03/17 00:17:28;;;;;;;22.45;15.40;;;;;;;13.01;46.01;101471.88;690598;28;1116;-86
2022/03/17 00:17:49;;;;;;;21.70;14.50;;;;;;;12.94;45.97;101465.59;690322;28;1911;-86
2022/03/17 00:18:09;;;;;;;20.67;14.13;;;;;;;12.92;46.15;101458.50;690540;28;1183;-86
2022/03/17 00:18:30;;;;;;;21.80;14.90;;;;;;;12.95;45.80;101464.75;687913;28;1326;-86
2022/03/17 00:18:51;;;;;;;23.40;16.10;;;;;;;12.96;45.86;101468.25;693108;28;1266;-86
2022/03/17 00:19:11;;;;;;;21.97;15.50;;;;;;;12.91;46.19;101456.72;693065;28;1161;-85
2022/03/17 00:19:32;;;;;;;22.00;15.47;;;;;;;12.91;45.89;101461.97;692855;28;1807;-87
2022/03/17 00:19:53;;;;;;;21.67;15.02;;;;;;;12.93;45.95;101462.88;696409;28;1335;-86
2022/03/17 00:20:14;;;;;;;21.65;15.43;;;;;;;12.95;46.03;101469.97;692999;28;1807;-86
2022/03/17 00:20:34;;;;;;;20.13;14.88;;;;;;;12.96;45.93;101466.50;693475;28;1380;-86
2022/03/17 00:20:55;;;;;;;20.00;14.93;;;;;;;12.88;46.24;101460.13;693187;28;1198;-86
2022/03/17 00:21:15;;;;;;;20.07;14.87;;;;;;;12.88;46.11;101463.66;693170;28;1712;-86
2022/03/17 00:21:42;;;;;;;20.45;14.85;;;;;;;12.87;46.12;101458.34;698728;28;1165;-86
2022/03/17 00:22:08;;;;;;;20.60;15.13;;;;;;;12.96;46.22;101474.38;696884;28;1423;-86
2022/03/17 00:22:29;;;;;;;22.45;15.23;;;;;;;12.89;45.99;101465.44;692872;28;1402;-86
2022/03/17 00:22:50;;;;;;;22.07;14.97;;;;;;;12.93;46.21;101461.19;693840;28;1243;-86
2022/03/17 00:23:11;;;;;;;20.58;14.30;;;;;;;12.98;46.17;101474.44;696145;28;1100;-86
2022/03/17 00:23:31;;;;;;;20.80;14.67;;;;;;;13.00;46.05;101471.03;690710;28;1201;-86
2022/03/17 00:23:52;;;;;;;19.67;14.20;;;;;;;12.92;45.88;101462.00;689610;28;1663;-87
2022/03/17 00:24:13;;;;;;;18.77;14.23;;;;;;;12.93;46.13;101466.44;691787;28;1026;-86
2022/03/17 00:24:33;;;;;;;19.37;14.33;;;;;;;12.93;45.67;101460.25;695968;28;1715;-86
2022/03/17 00:24:54;;;;;;;20.30;14.52;;;;;;;12.91;46.15;101459.34;693385;28;1202;-86
2022/03/17 00:25:17;;;;;;;21.52;14.68;;;;;;;12.94;46.12;101464.69;692963;28;1630;-86
2022/03/17 00:25:38;;;;;;;22.38;14.50;;;;;;;13.02;45.88;101473.66;693181;28;1228;-86
2022/03/17 00:25:58;;;;;;;22.92;15.00;;;;;;;12.97;46.39;101459.56;693329;28;1363;-86
2022/03/17 00:26:19;;;;;;;21.93;14.27;;;;;;;12.98;46.18;101463.94;693012;28;1812;-86
2022/03/17 00:26:40;;;;;;;20.65;13.93;;;;;;;12.96;46.06;101463.91;693299;28;1646;-86
2022/03/17 00:27:01;;;;;;;22.27;14.35;;;;;;;12.98;45.81;101472.69;685731;28;1772;-85
2022/03/17 00:27:22;;;;;;;24.40;15.30;;;;;;;12.96;45.81;101458.66;685269;28;866;-86
2022/03/17 00:27:43;;;;;;;24.47;15.57;;;;;;;13.04;45.94;101479.84;687861;28;1219;-86
2022/03/17 00:28:04;;;;;;;22.83;15.30;;;;;;;13.05;45.86;101476.38;685131;28;1209;-86
2022/03/17 00:28:24;;;;;;;21.60;15.32;;;;;;;13.00;45.68;101457.00;688478;28;1065;-86
2022/03/17 00:28:46;;;;;;;20.80;15.20;;;;;;;13.00;45.91;101459.63;691085;28;1358;-85
2022/03/17 00:29:07;;;;;;;22.27;15.63;;;;;;;13.05;45.84;101470.25;693426;28;1273;-86
2022/03/17 00:29:28;;;;;;;22.50;15.80;;;;;;;12.98;46.03;101456.09;690288;28;1338;-86
2022/03/17 00:29:50;;;;;;;21.27;15.25;;;;;;;13.09;45.93;101472.13;691405;28;806;-86
2022/03/17 00:30:11;;;;;;;19.63;15.00;;;;;;;13.03;45.39;101451.84;693302;28;1265;-86
2022/03/17 00:30:32;;;;;;;18.75;14.57;;;;;;;13.12;45.59;101461.72;692668;28;1304;-86
2022/03/17 00:30:52;;;;;;;20.53;15.67;;;;;;;13.11;45.38;101462.56;690417;28;1198;-86
2022/03/17 00:31:16;;;;;;;20.80;15.35;;;;;;;13.07;45.40;101458.06;693083;28;1070;-86
2022/03/17 00:31:39;;;;;;;20.80;15.40;;;;;;;13.10;45.63;101459.03;693312;28;1203;-85
2022/03/17 00:32:00;;;;;;;21.73;15.13;;;;;;;13.09;45.58;101457.28;693097;28;1260;-85
2022/03/17 00:32:20;;;;;;;20.20;14.90;;;;;;;13.14;45.50;101474.03;693107;28;1278;-85
2022/03/17 00:32:41;;;;;;;20.80;14.83;;;;;;;13.09;45.39;101457.28;693419;28;1686;-86
2022/03/17 00:33:02;;;;;;;19.02;14.55;;;;;;;13.10;45.35;101461.66;689791;28;1345;-86
2022/03/17 00:33:22;;;;;;;19.25;14.40;;;;;;;13.05;45.47;101460.66;689176;28;1196;-86
2022/03/17 00:33:43;;;;;;;19.47;14.93;;;;;;;13.12;45.16;101473.09;693280;28;1287;-86
2022/03/17 00:34:05;;;;;;;21.08;14.95;;;;;;;13.14;45.14;101463.53;688445;28;1422;-86
2022/03/17 00:34:25;;;;;;;22.80;15.73;;;;;;;13.16;45.33;101464.47;695012;28;1779;-86
2022/03/17 00:35:46;;;;;;;21.98;14.68;;;;;;;13.21;45.27;101451.50;690449;28;1594;-86
2022/03/17 00:36:06;;;;;;;25.52;14.90;;;;;;;13.26;45.19;101462.09;687590;28;1393;-85
2022/03/17 00:36:27;;;;;;;24.20;15.13;;;;;;;13.22;45.21;101463.75;689768;28;1186;-85
2022/03/17 00:36:47;;;;;;;25.10;15.37;;;;;;;13.24;45.00;101445.44;687657;28;1172;-86
2022/03/17 00:37:08;;;;;;;21.10;15.07;;;;;;;13.16;45.24;101443.50;682061;29;1242;-86
2022/03/17 00:37:29;;;;;;;21.40;15.30;;;;;;;13.31;45.09;101457.88;679834;28;1397;-85
2022/03/17 00:37:49;;;;;;;20.20;15.40;;;;;;;13.27;44.94;101442.94;683036;28;1906;-86
2022/03/17 00:38:17;;;;;;;21.90;15.10;;;;;;;13.28;45.23;101460.44;687218;28;1639;-86
2022/03/17 00:38:37;;;;;;;21.38;14.70;;;;;;;13.25;45.10;101449.84;685036;28;1281;-85
2022/03/17 00:38:58;;;;;;;21.27;14.50;;;;;;;13.31;45.12;101444.78;686840;28;1280;-86
2022/03/17 00:39:18;;;;;;;20.70;14.55;;;;;;;13.33;44.75;101455.31;684805;28;1624;-85
2022/03/17 00:39:39;;;;;;;19.93;14.23;;;;;;;13.29;45.07;101449.09;684778;28;1181;-85
2022/03/17 00:40:00;;;;;;;19.60;14.35;;;;;;;13.38;45.17;101451.97;684945;28;1229;-86
2022/03/17 00:40:20;;;;;;;18.47;14.23;;;;;;;13.40;44.73;101452.03;685009;28;1260;-85
2022/03/17 00:40:43;;;;;;;18.97;14.87;;;;;;;13.46;44.85;101452.16;685082;28;1383;-84
2022/03/17 00:41:03;;;;;;;20.15;15.07;;;;;;;13.47;44.41;101448.72;687335;28;1489;-86
2022/03/17 00:41:24;;;;;;;21.77;15.07;;;;;;;13.46;44.48;101452.16;687487;28;1683;-86
2022/03/17 00:41:44;;;;;;;22.88;14.77;;;;;;;13.49;44.40;101453.97;692187;28;1723;-86
2022/03/17 00:42:05;;;;;;;22.17;14.60;;;;;;;13.47;44.40;101446.09;689053;28;1637;-86
2022/03/17 00:42:27;;;;;;;21.35;14.63;;;;;;;13.48;44.23;101449.59;693466;28;1247;-86
2022/03/17 00:42:47;;;;;;;21.08;15.10;;;;;;;13.46;44.57;101451.28;693102;28;1373;-87
2022/03/17 00:43:11;;;;;;;22.08;14.95;;;;;;;13.41;44.74;101456.41;690342;28;1440;-86
2022/03/17 00:43:34;;;;;;;20.25;14.18;;;;;;;13.41;44.55;101462.53;687956;28;1286;-86
2022/03/17 00:43:54;;;;;;;19.40;13.90;;;;;;;13.39;44.77;101460.72;693368;28;1144;-86
2022/03/17 00:44:15;;;;;;;20.63;14.77;;;;;;;13.46;44.59;101467.03;695822;28;1279;-86
2022/03/17 00:44:36;;;;;;;21.58;15.60;;;;;;;13.46;44.54;101467.03;693328;28;1231;-86
2022/03/17 00:44:56;;;;;;;22.67;16.00;;;;;;;13.30;44.43;101453.50;698713;28;1759;-85
2022/03/17 00:45:17;;;;;;;22.40;15.32;;;;;;;13.38;44.71;101462.47;693207;28;1219;-85
2022/03/17 00:45:39;;;;;;;22.35;15.00;;;;;;;13.51;44.54;101473.28;693204;28;1179;-85
2022/03/17 00:46:00;;;;;;;22.27;15.07;;;;;;;13.49;44.27;101461.84;695157;28;1169;-84
2022/03/17 00:46:21;;;;;;;23.33;15.45;;;;;;;13.53;44.40;101463.72;697400;28;1231;-86
2022/03/17 00:46:41;;;;;;;22.92;15.18;;;;;;;13.47;44.50;101464.44;693190;28;1133;-85
2022/03/17 00:47:02;;;;;;;22.53;15.33;;;;;;;13.46;44.42;101472.28;690387;28;1143;-85
2022/03/17 00:47:22;;;;;;;22.98;14.93;;;;;;;13.42;44.33;101456.44;692674;28;1489;-85
2022/03/17 00:47:43;;;;;;;24.17;15.60;;;;;;;13.43;44.41;101447.75;696047;28;1280;-86
2022/03/17 00:48:04;;;;;;;24.60;15.85;;;;;;;13.48;44.54;101460.97;692927;28;1341;-86
2022/03/17 00:48:25;;;;;;;21.92;15.70;;;;;;;13.52;44.51;101467.19;692932;28;1066;-85
2022/03/17 00:48:45;;;;;;;20.08;14.85;;;;;;;13.54;44.34;101457.63;690724;28;1087;-85
2022/03/17 00:49:06;;;;;;;19.47;14.70;;;;;;;13.41;44.25;101452.03;697830;28;1818;-85
2022/03/17 00:49:27;;;;;;;21.05;15.02;;;;;;;13.46;44.34;101461.78;695748;28;1273;-86
2022/03/17 00:49:48;;;;;;;21.80;15.70;;;;;;;13.49;44.56;101459.22;690256;28;1236;-85
2022/03/17 00:50:10;;;;;;;21.98;15.65;;;;;;;13.54;44.45;101465.50;691567;28;1768;-85
2022/03/17 00:50:31;;;;;;;20.55;14.68;;;;;;;13.55;44.35;101462.94;693489;28;1720;-86
2022/03/17 00:50:52;;;;;;;20.55;14.80;;;;;;;13.47;44.43;101463.56;693220;28;1138;-86
2022/03/17 00:51:12;;;;;;;20.77;14.73;;;;;;;13.59;44.20;101458.66;692923;28;1695;-86
2022/03/17 00:51:33;;;;;;;21.35;15.32;;;;;;;13.49;44.26;101451.38;690822;28;903;-86
2022/03/17 00:51:54;;;;;;;20.73;15.02;;;;;;;13.59;44.13;101466.50;693293;28;1360;-86
2022/03/17 00:52:16;;;;;;;19.48;14.70;;;;;;;13.67;43.78;101462.38;690496;28;1191;-86
2022/03/17 00:52:37;;;;;;;19.85;14.73;;;;;;;13.65;43.99;101464.03;696062;28;1242;-86
2022/03/17 00:52:59;;;;;;;21.80;14.93;;;;;;;13.63;44.00;101450.00;693015;28;1203;-86
2022/03/17 00:53:19;;;;;;;23.73;15.35;;;;;;;13.69;43.80;101459.75;690650;28;1250;-86
2022/03/17 00:53:40;;;;;;;24.93;15.73;;;;;;;13.73;43.74;101460.72;690710;28;790;-85
2022/03/17 00:54:00;;;;;;;23.02;15.48;;;;;;;13.73;43.66;101461.63;689459;28;1286;-86
2022/03/17 00:54:21;;;;;;;23.57;16.13;;;;;;;13.73;43.67;101460.72;692968;28;1728;-86
2022/03/17 00:54:42;;;;;;;21.58;15.82;;;;;;;13.66;43.50;101449.19;696176;28;751;-86
2022/03/17 00:55:05;;;;;;;21.90;16.02;;;;;;;13.68;43.46;101453.63;697639;28;1280;-86
2022/03/17 00:55:26;;;;;;;20.40;14.93;;;;;;;13.67;43.61;101454.50;695964;28;937;-85
2022/03/17 00:55:47;;;;;;;20.10;14.63;;;;;;;13.73;43.77;101461.63;690841;28;1338;-85
2022/03/17 00:56:07;;;;;;;19.20;14.70;;;;;;;13.66;43.74;101464.94;690295;28;1247;-86
2022/03/17 00:56:29;;;;;;;19.52;15.13;;;;;;;13.74;43.88;101470.38;690345;28;1173;-86
2022/03/17 00:56:49;;;;;;;20.50;15.70;;;;;;;13.73;43.68;101465.97;691406;28;1733;-86
2022/03/17 00:57:10;;;;;;;20.93;15.40;;;;;;;13.71;43.69;101458.94;690620;28;1051;-86
2022/03/17 00:57:31;;;;;;;21.03;15.37;;;;;;;13.69;43.61;101460.66;694355;28;1579;-86
2022/03/17 00:57:52;;;;;;;21.00;15.40;;;;;;;13.69;43.70;101458.03;692382;28;1964;-86
2022/03/17 00:58:12;;;;;;;20.85;15.35;;;;;;;13.75;43.74;101464.31;695765;28;1715;-86
2022/03/17 00:58:33;;;;;;;21.85;15.32;;;;;;;13.69;43.76;101447.53;694963;28;1134;-86
2022/03/17 00:58:53;;;;;;;21.83;15.00;;;;;;;13.78;43.63;101469.63;690699;28;1075;-86
2022/03/17 00:59:14;;;;;;;22.07;15.50;;;;;;;13.76;43.53;101460.81;688293;28;1770;-86
2022/03/17 00:59:38;;;;;;;20.85;15.30;;;;;;;13.68;43.66;101448.41;690550;28;783;-86
2022/03/17 00:59:59;;;;;;;20.63;15.00;;;;;;;13.76;43.94;101460.81;689836;28;1742;-86
2022/03/17 01:00:21;;;;;;;20.00;14.60;;;;;;;13.70;43.80;101458.91;690456;28;1828;-86
2022/03/17 01:00:41;;;;;;;21.73;15.32;;;;;;;13.71;43.70;101458.94;690488;28;1219;-86
2022/03/17 01:01:02;;;;;;;21.90;15.80;;;;;;;13.68;43.62;101455.38;689937;28;1413;-85
2022/03/17 01:01:23;;;;;;;22.33;16.13;;;;;;;13.79;43.61;101471.38;688916;28;1535;-86
2022/03/17 01:01:43;;;;;;;21.67;15.65;;;;;;;13.82;43.60;101471.44;690139;28;1231;-86
2022/03/17 01:02:05;;;;;;;21.50;15.47;;;;;;;13.82;43.49;101460.97;693292;28;1302;-86
2022/03/17 01:02:25;;;;;;;21.15;15.32;;;;;;;13.83;43.50;101468.00;693158;28;1421;-86
2022/03/17 01:02:51;;;;;;;21.25;15.35;;;;;;;13.80;43.42;101460.94;690856;28;1145;-85
2022/03/17 01:03:11;;;;;;;21.50;15.50;;;;;;;13.87;43.15;101469.84;696182;28;1747;-85
2022/03/17 01:03:32;;;;;;;21.58;15.43;;;;;;;13.75;43.41;101459.91;695316;28;1039;-85
2022/03/17 01:03:52;;;;;;;20.93;15.40;;;;;;;13.76;43.40;101464.31;696755;28;1160;-86
2022/03/17 01:04:13;;;;;;;22.17;15.63;;;;;;;13.76;43.46;101464.31;692242;28;1603;-86
2022/03/17 01:04:35;;;;;;;21.13;15.40;;;;;;;13.76;43.43;101455.56;693543;28;1094;-86
2022/03/17 01:04:56;;;;;;;25.25;15.55;;;;;;;13.79;43.63;101456.53;693210;28;1526;-86
2022/03/17 01:05:17;;;;;;;26.10;15.10;;;;;;;13.79;43.60;101450.41;693136;28;1309;-86
2022/03/17 01:05:39;;;;;;;26.17;15.60;;;;;;;13.83;43.30;101457.50;693411;28;1228;-86
2022/03/17 01:05:59;;;;;;;22.67;15.77;;;;;;;13.91;43.24;101461.22;691107;28;1276;-84
2022/03/17 01:06:20;;;;;;;21.40;16.10;;;;;;;13.89;43.36;101457.66;687633;28;1296;-85
2022/03/17 01:06:40;;;;;;;24.25;16.45;;;;;;;13.90;43.10;101454.16;693616;28;1187;-86
2022/03/17 01:07:01;;;;;;;24.67;16.50;;;;;;;13.88;43.29;101455.88;693646;28;1484;-85
2022/03/17 01:07:22;;;;;;;24.30;16.48;;;;;;;13.89;43.17;101452.41;690366;28;1430;-86
2022/03/17 01:07:42;;;;;;;22.83;16.37;;;;;;;13.88;43.11;101450.63;688963;28;1670;-85
2022/03/17 01:08:03;;;;;;;21.55;15.95;;;;;;;13.81;43.45;101460.09;690540;28;1213;-86
2022/03/17 01:08:23;;;;;;;21.55;15.27;;;;;;;13.83;43.50;101457.50;689528;28;1702;-84
2022/03/17 01:08:44;;;;;;;21.70;15.27;;;;;;;13.87;43.21;101443.59;692758;28;1705;-85
2022/03/17 01:09:04;;;;;;;24.77;15.82;;;;;;;13.88;43.47;101450.63;689402;28;1532;-86
2022/03/17 01:09:28;;;;;;;24.30;15.90;;;;;;;13.89;43.33;101436.66;692652;28;1743;-85
2022/03/17 01:09:48;;;;;;;23.02;15.52;;;;;;;13.91;43.15;101449.81;692812;28;1115;-86
2022/03/17 01:10:11;;;;;;;20.87;15.63;;;;;;;13.91;43.36;101462.94;695857;28;1712;-85
2022/03/17 01:10:32;;;;;;;22.20;15.80;;;;;;;13.93;43.16;101454.25;696559;28;853;-86
2022/03/17 01:10:53;;;;;;;21.52;15.27;;;;;;;13.85;43.37;101440.94;696982;28;1089;-86
2022/03/17 01:11:13;;;;;;;20.17;14.77;;;;;;;13.93;43.28;101449.00;696115;28;1724;-86
2022/03/17 01:11:34;;;;;;;20.98;15.30;;;;;;;13.91;43.26;101441.94;690641;28;1120;-86
2022/03/17 01:11:55;;;;;;;22.40;16.23;;;;;;;14.01;43.40;101457.06;692283;28;1492;-86
2022/03/17 01:12:16;;;;;;;23.45;16.65;;;;;;;14.01;43.30;101458.81;690455;28;1265;-86
2022/03/17 01:12:36;;;;;;;22.92;16.17;;;;;;;14.05;43.21;101463.28;687966;28;842;-85
2022/03/17 01:12:57;;;;;;;22.45;15.77;;;;;;;13.95;43.13;101447.31;690492;28;1204;-85
2022/03/17 01:13:18;;;;;;;22.85;15.48;;;;;;;14.02;43.16;101457.97;691034;28;1599;-86
2022/03/17 01:13:38;;;;;;;22.03;15.33;;;;;;;13.93;43.01;101441.16;693416;28;924;-86
2022/03/17 01:13:59;;;;;;;21.70;15.10;;;;;;;14.01;43.01;101462.31;693612;28;1256;-86
2022/03/17 01:14:19;;;;;;;20.40;15.33;;;;;;;14.00;42.94;101449.19;693271;28;1041;-86
2022/03/17 01:14:40;;;;;;;22.00;15.60;;;;;;;14.00;42.73;101457.91;695887;28;1242;-84
2022/03/17 01:15:01;;;;;;;22.83;15.90;;;;;;;13.95;43.15;101435.94;690350;28;1464;-85
2022/03/17 01:15:22;;;;;;;22.65;15.95;;;;;;;13.96;43.25;101449.09;690134;28;1243;-86
2022/03/17 01:15:43;;;;;;;21.88;15.93;;;;;;;14.05;43.08;101458.03;690372;28;1197;-86
2022/03/17 01:16:04;;;;;;;22.88;16.00;;;;;;;13.94;42.97;101445.53;695602;28;1128;-87
2022/03/17 01:16:50;;;;;;;23.83;15.95;;;;;;;14.06;43.34;101458.06;695743;28;1247;-86
2022/03/17 01:17:10;;;;;;;24.00;15.70;;;;;;;14.00;42.92;101443.94;694269;28;1609;-86
2022/03/17 01:17:31;;;;;;;23.20;15.55;;;;;;;13.99;43.38;101450.91;691498;28;771;-85
2022/03/17 01:17:52;;;;;;;24.90;15.43;;;;;;;14.00;42.98;101454.41;692959;28;1920;-86
2022/03/17 01:18:12;;;;;;;23.70;15.60;;;;;;;13.97;42.89;101445.59;690186;28;1258;-85
2022/03/17 01:18:33;;;;;;;22.95;15.57;;;;;;;13.98;43.11;101446.50;687712;28;1272;-86
2022/03/17 01:18:53;;;;;;;20.23;15.67;;;;;;;14.02;43.17;101444.84;692376;28;1475;-86
2022/03/17 01:19:14;;;;;;;22.33;15.40;;;;;;;13.99;43.16;101448.28;690169;28;1307;-86
2022/03/17 01:19:35;;;;;;;22.20;15.30;;;;;;;13.98;42.97;101441.25;695757;28;1258;-86
2022/03/17 01:19:56;;;;;;;22.58;15.30;;;;;;;13.97;43.32;101439.50;689202;28;1389;-85
2022/03/17 01:20:16;;;;;;;19.23;15.02;;;;;;;14.07;43.37;101457.22;690511;28;1244;-86
2022/03/17 01:20:37;;;;;;;18.73;14.93;;;;;;;14.04;43.16;101454.53;693264;28;1190;-86
2022/03/17 01:20:58;;;;;;;20.97;15.07;;;;;;;14.00;43.13;101443.94;693070;28;1223;-86
2022/03/17 01:21:18;;;;;;;22.60;15.30;;;;;;;14.03;43.10;101455.38;696017;28;1040;-86
2022/03/17 01:21:39;;;;;;;23.10;15.40;;;;;;;14.03;43.15;101457.13;693345;28;838;-86
2022/03/17 01:22:00;;;;;;;23.38;16.15;;;;;;;13.95;43.24;101436.81;692416;28;1356;-86
2022/03/17 01:22:21;;;;;;;22.58;16.20;;;;;;;13.98;43.29;101447.41;690469;28;1260;-86
2022/03/17 01:22:42;;;;;;;22.02;16.10;;;;;;;14.07;43.20;101456.34;690626;28;1662;-86
2022/03/17 01:23:04;;;;;;;21.00;15.17;;;;;;;13.97;43.15;101444.72;690486;28;1300;-86
2022/03/17 01:23:25;;;;;;;21.73;15.65;;;;;;;13.99;43.10;101437.78;693198;28;1373;-86
2022/03/17 01:23:45;;;;;;;22.40;16.25;;;;;;;14.03;43.22;101444.91;693027;28;1539;-86
2022/03/17 01:24:06;;;;;;;22.55;16.95;;;;;;;14.03;42.97;101438.75;690239;28;1647;-86
2022/03/17 01:24:26;;;;;;;21.87;16.60;;;;;;;13.98;43.24;101442.16;690519;28;1029;-86
2022/03/17 01:24:49;;;;;;;21.30;16.15;;;;;;;14.01;43.34;101445.69;693085;28;1259;-85
2022/03/17 01:25:09;;;;;;;22.23;15.45;;;;;;;13.97;43.15;101445.59;693079;28;1274;-86
2022/03/17 01:25:31;;;;;;;23.50;16.00;;;;;;;14.05;43.01;101452.78;693299;28;1282;-85
2022/03/17 01:25:52;;;;;;;25.30;15.80;;;;;;;13.95;43.29;101436.81;693102;28;1562;-85
2022/03/17 01:26:13;;;;;;;24.10;15.43;;;;;;;13.92;43.37;101436.75;690328;28;977;-86
2022/03/17 01:26:34;;;;;;;24.33;15.43;;;;;;;13.94;43.36;101444.63;693255;28;1117;-86
2022/03/17 01:26:54;;;;;;;21.20;15.23;;;;;;;13.99;43.20;101448.28;691931;28;1519;-86
2022/03/17 01:27:20;;;;;;;20.35;14.65;;;;;;;13.94;43.14;101431.50;690248;28;1136;-86
2022/03/17 01:27:40;;;;;;;21.52;14.13;;;;;;;13.97;43.42;101440.34;690670;28;889;-86
2022/03/17 01:28:01;;;;;;;22.65;14.45;;;;;;;14.00;43.32;101438.69;687390;28;1646;-85
2022/03/17 01:28:21;;;;;;;21.70;14.00;;;;;;;14.02;43.34;101442.22;693112;28;1251;-85
2022/03/17 01:28:42;;;;;;;19.37;14.13;;;;;;;14.03;43.29;101446.63;690386;28;1341;-85
2022/03/17 01:29:02;;;;;;;19.25;14.60;;;;;;;13.98;43.08;101436.00;692373;28;1199;-86
2022/03/17 01:29:23;;;;;;;20.63;15.00;;;;;;;13.97;43.30;101440.34;693065;28;1560;-85
2022/03/17 01:29:44;;;;;;;21.90;15.32;;;;;;;13.94;43.43;101437.66;689954;28;1258;-86
2022/03/17 01:30:09;;;;;;;22.35;15.32;;;;;;;13.94;43.55;101439.38;693828;28;1305;-86
2022/03/17 01:30:31;;;;;;;20.80;15.13;;;;;;;13.90;43.63;101432.31;690408;28;1306;-86
2022/03/17 01:30:52;;;;;;;19.70;15.07;;;;;;;13.91;43.39;101434.97;693113;28;1444;-85
2022/03/17 01:31:13;;;;;;;21.27;15.75;;;;;;;13.90;43.63;101433.19;690419;28;1400;-86
2022/03/17 01:31:34;;;;;;;21.48;15.75;;;;;;;13.98;43.83;101441.25;688030;28;1160;-86
2022/03/17 01:31:55;;;;;;;20.38;15.23;;;;;;;14.00;43.62;101438.69;693309;28;912;-86
2022/03/17 01:32:16;;;;;;;20.33;14.93;;;;;;;13.95;43.64;101433.31;692939;28;1255;-86
2022/03/17 01:32:40;;;;;;;21.42;15.27;;;;;;;13.91;43.66;101428.84;693335;28;819;-86
2022/03/17 01:33:02;;;;;;;20.35;14.77;;;;;;;13.83;43.72;101415.53;692557;28;1116;-85
2022/03/17 01:33:23;;;;;;;20.55;14.73;;;;;;;13.91;43.61;101421.88;689137;28;776;-86
2022/03/17 01:33:43;;;;;;;19.77;14.80;;;;;;;13.95;43.63;101426.31;688087;28;1161;-85
2022/03/17 01:34:04;;;;;;;20.50;15.63;;;;;;;13.94;43.84;101427.16;692744;28;1763;-86
2022/03/17 01:34:24;;;;;;;20.07;15.73;;;;;;;13.88;43.55;101418.28;694746;28;1692;-86
2022/03/17 01:34:45;;;;;;;20.98;16.00;;;;;;;13.94;43.72;101434.13;695860;28;1066;-86
2022/03/17 01:35:07;;;;;;;20.60;15.40;;;;;;;13.90;43.47;101427.94;692924;28;1172;-85
2022/03/17 01:35:28;;;;;;;20.70;15.13;;;;;;;13.96;43.60;101429.84;692991;28;1779;-86
2022/03/17 01:35:49;;;;;;;21.13;15.15;;;;;;;13.91;43.52;101421.88;691465;28;1517;-86
2022/03/17 01:36:09;;;;;;;21.90;15.57;;;;;;;13.95;43.56;101430.69;695755;28;1144;-86
2022/03/17 01:36:30;;;;;;;21.10;15.13;;;;;;;13.89;43.42;101423.53;695461;28;1271;-86
2022/03/17 01:36:51;;;;;;;21.17;15.90;;;;;;;13.90;43.73;101422.69;691119;28;1339;-85
2022/03/17 01:37:12;;;;;;;20.70;15.95;;;;;;;14.02;43.59;101442.22;690317;28;1297;-85
2022/03/17 01:37:32;;;;;;;21.25;16.08;;;;;;;13.98;43.17;101433.38;691430;28;1692;-86
2022/03/17 01:37:53;;;;;;;20.90;15.13;;;;;;;13.96;43.54;101432.47;690210;28;1914;-86
2022/03/17 01:38:13;;;;;;;21.63;15.10;;;;;;;13.92;43.54;101423.63;690056;28;1357;-86
2022/03/17 01:38:34;;;;;;;22.00;15.23;;;;;;;13.94;43.39;101429.78;693150;28;1168;-86
2022/03/17 01:38:54;;;;;;;21.52;15.50;;;;;;;13.92;43.45;101426.25;691932;28;1666;-86
2022/03/17 01:39:15;;;;;;;22.73;16.10;;;;;;;13.97;43.49;101435.09;689660;28;1297;-86
2022/03/17 01:39:36;;;;;;;22.90;16.43;;;;;;;13.92;43.45;101426.25;692950;28;1164;-85